KDVO

Details ICAO KDVO
Name GNOSS FLD
Region United States
Timezone America/Los_Angeles (UTC-8.0)
Plans Departing 14
Arriving 7
Stats Elevation 2 ft / 1 m (AMSL)
Location 38.143602° -122.556123°
Runways 1
Magnetic Variation 13.605° E
Sunrise 2017-12-18 15:22:56 UTC / 2017-12-18 07:22:56 Local
Sunset 2017-12-19 00:53:46 UTC / 2017-12-18 16:53:46 Local
Advertisement - Login to hide

Runways

ID Width Length Bearing (true) Bearing (mag) Surface Threshold Offset Overrun Length
13 75 ft / 23 m 3,304 ft / 1,007 m 148.57° 134.97° Asphalt 0 ft / 0 m 98 ft / 30 m
31 75 ft / 23 m 3,304 ft / 1,007 m 328.57° 314.97° Asphalt 0 ft / 0 m 125 ft / 38 m

Map

Weather


0- 5 10 15 20 25 30 35+ Temperature / ° C

Clouds and Precipitation
Forecast for 2017-12-18 18:00 UTC. Updated 5 minutes ago

Ground ~20,000 ft ~40,000 ft Winds

METAR

KDVO 181515Z AUTO 19005KT 10SM CLR 02/00 A3022 RMK AO2

TAF

Not found

Frequencies

Recorded 120.67 MHz AWOS 3
Unicom 123.07 MHz CTAF/UNICOM
Warning: Do not use this data for real-world aviation or navigation. No guarantee of current accuracy is given.